createdAt,value
2017-06-05T00:00:02.807Z,0
2017-06-05T00:01:02.474Z,0
2017-06-05T00:02:03.057Z,0
2017-06-05T00:03:02.792Z,0
2017-06-05T00:04:02.490Z,0
2017-06-05T00:05:02.763Z,0
2017-06-05T00:06:02.694Z,0
2017-06-05T00:07:02.420Z,0
2017-06-05T00:08:02.654Z,0
2017-06-05T00:09:02.654Z,0
2017-06-05T00:10:02.706Z,0
2017-06-05T00:11:02.915Z,0
2017-06-05T00:12:02.657Z,0
2017-06-05T00:13:02.879Z,0
2017-06-05T00:14:02.573Z,0
2017-06-05T00:15:02.849Z,0
2017-06-05T00:16:02.568Z,0
2017-06-05T00:17:02.556Z,0
2017-06-05T00:18:02.523Z,0
2017-06-05T00:19:02.500Z,0
2017-06-05T00:20:02.479Z,0
2017-06-05T00:21:02.755Z,0
2017-06-05T00:22:02.563Z,0
2017-06-05T00:23:02.832Z,0
2017-06-05T00:24:02.802Z,0
2017-06-05T00:25:02.784Z,0
2017-06-05T00:26:02.764Z,0
2017-06-05T00:27:02.081Z,0
2017-06-05T00:28:02.355Z,0
2017-06-05T00:29:02.748Z,0
2017-06-05T00:30:02.637Z,0
2017-06-05T00:31:02.740Z,0
2017-06-05T00:32:02.672Z,0
2017-06-05T00:33:02.317Z,0
2017-06-05T00:34:02.534Z,0
2017-06-05T00:35:02.563Z,0
2017-06-05T00:36:02.613Z,0
2017-06-05T00:37:02.506Z,0
2017-06-05T00:38:02.321Z,0
2017-06-05T00:39:01.544Z,0
2017-06-05T00:40:02.476Z,0
2017-06-05T00:41:02.122Z,0
2017-06-05T00:42:02.486Z,0
2017-06-05T00:43:02.486Z,0
2017-06-05T00:44:01.796Z,0
2017-06-05T00:45:02.374Z,0
2017-06-05T00:46:02.406Z,0
2017-06-05T00:47:02.011Z,0
2017-06-05T00:48:02.051Z,0
2017-06-05T00:49:01.764Z,0
2017-06-05T00:50:01.962Z,0
2017-06-05T00:51:01.994Z,0
2017-06-05T00:52:01.953Z,0
2017-06-05T00:53:02.322Z,0
2017-06-05T00:54:02.243Z,0
2017-06-05T00:55:01.975Z,0
2017-06-05T00:56:00.935Z,0
2017-06-05T00:57:01.541Z,0
2017-06-05T00:58:01.952Z,0
2017-06-05T00:59:01.840Z,0
2017-06-05T01:00:01.862Z,0
2017-06-05T01:01:01.834Z,0
2017-06-05T01:02:01.841Z,0
2017-06-05T01:03:01.754Z,0
2017-06-05T01:04:02.087Z,0
2017-06-05T01:05:01.721Z,0
2017-06-05T01:06:01.740Z,0
2017-06-05T01:07:01.387Z,0
2017-06-05T01:08:02.011Z,0
2017-06-05T01:09:01.671Z,0
2017-06-05T01:10:01.342Z,0
2017-06-05T01:11:01.293Z,0
2017-06-05T01:12:01.313Z,0
2017-06-05T01:13:01.598Z,0
2017-06-05T01:14:01.335Z,0
2017-06-05T01:15:01.552Z,0
2017-06-05T01:16:01.671Z,0
2017-06-05T01:17:01.502Z,0
2017-06-05T01:18:01.492Z,0
2017-06-05T01:19:01.482Z,0
2017-06-05T01:20:01.530Z,0
2017-06-05T01:21:01.476Z,0
2017-06-05T01:22:01.527Z,0
2017-06-05T01:23:01.759Z,0
2017-06-05T01:24:01.111Z,0
2017-06-05T01:25:01.391Z,0
2017-06-05T01:26:01.063Z,0
2017-06-05T01:27:01.039Z,0
2017-06-05T01:28:01.083Z,0
2017-06-05T01:29:00.384Z,0
2017-06-05T01:30:01.304Z,0
2017-06-05T01:31:00.984Z,0
2017-06-05T01:32:01.578Z,0
2017-06-05T01:33:01.242Z,0
2017-06-05T01:34:01.541Z,0
2017-06-05T01:35:01.214Z,0
2017-06-05T01:36:00.893Z,0
2017-06-05T01:37:01.187Z,0
2017-06-05T01:38:01.181Z,0
2017-06-05T01:39:00.556Z,0
2017-06-05T01:40:00.861Z,0
2017-06-05T01:41:01.133Z,0
2017-06-05T01:42:00.829Z,0
2017-06-05T01:43:01.381Z,0
2017-06-05T01:44:01.431Z,0
2017-06-05T01:45:00.796Z,0
2017-06-05T01:46:01.035Z,0
2017-06-05T01:47:00.767Z,0
2017-06-05T01:48:00.690Z,0
2017-06-05T01:49:01.281Z,0
2017-06-05T01:50:01.292Z,0
2017-06-05T01:51:00.958Z,0
2017-06-05T01:52:00.311Z,0
2017-06-05T01:53:00.311Z,0
2017-06-05T01:54:01.227Z,0
2017-06-05T01:55:00.574Z,0
2017-06-05T01:56:00.585Z,0
2017-06-05T01:57:00.528Z,0
2017-06-05T01:58:00.211Z,0
2017-06-05T01:59:01.115Z,0
2017-06-05T02:00:01.103Z,0
2017-06-05T02:01:00.481Z,0
2017-06-05T02:02:00.473Z,0
2017-06-05T02:03:00.175Z,0
2017-06-05T02:04:00.736Z,0
2017-06-05T02:05:00.418Z,0
2017-06-05T02:06:00.439Z,0
2017-06-05T02:07:00.679Z,0
2017-06-05T02:08:00.354Z,0
2017-06-05T02:09:00.642Z,0
2017-06-05T02:10:00.310Z,0
2017-06-05T02:11:00.320Z,0
2017-06-05T02:12:00.311Z,0
2017-06-05T02:13:00.271Z,0
2017-06-05T02:14:00.262Z,0
2017-06-05T02:15:00.352Z,0
2017-06-05T02:16:00.225Z,0
2017-06-05T02:17:00.501Z,0
2017-06-05T02:18:00.222Z,0
2017-06-05T02:19:00.151Z,0
2017-06-05T02:20:00.741Z,0
2017-06-05T02:21:00.739Z,0
2017-06-05T02:22:00.120Z,0
2017-06-05T02:23:00.392Z,0
2017-06-05T02:24:00.372Z,0
2017-06-05T02:25:00.056Z,0
2017-06-05T02:26:00.118Z,0
2017-06-05T02:27:00.042Z,0
2017-06-05T02:28:00.310Z,0
2017-06-05T02:29:00.072Z,0
2017-06-05T02:30:00.303Z,0
2017-06-05T02:31:00.254Z,0
2017-06-05T02:31:59.958Z,0
2017-06-05T02:33:00.649Z,0
2017-06-05T02:34:00.262Z,0
2017-06-05T02:35:00.198Z,0
2017-06-05T02:35:59.933Z,0
2017-06-05T02:37:00.141Z,0
2017-06-05T02:37:59.836Z,0
2017-06-05T02:39:00.114Z,0
2017-06-05T02:40:00.086Z,0
2017-06-05T02:41:00.397Z,0
2017-06-05T02:42:00.080Z,0
2017-06-05T02:43:00.073Z,0
2017-06-05T02:43:59.177Z,0
2017-06-05T02:45:00.335Z,0
2017-06-05T02:46:00.302Z,0
2017-06-05T02:46:59.996Z,0
2017-06-05T02:48:00.270Z,0
2017-06-05T02:48:59.949Z,0
2017-06-05T02:50:00.242Z,0
2017-06-05T02:50:59.620Z,0
2017-06-05T02:51:59.910Z,0
2017-06-05T02:53:00.225Z,0
2017-06-05T02:54:00.195Z,0
2017-06-05T02:54:59.525Z,0
2017-06-05T02:56:00.135Z,0
2017-06-05T02:56:59.202Z,0
2017-06-05T02:58:00.112Z,0
2017-06-05T02:59:00.113Z,0
2017-06-05T02:59:59.794Z,0
2017-06-05T03:00:59.729Z,0
2017-06-05T03:01:59.440Z,0
2017-06-05T03:02:59.734Z,0
2017-06-05T03:03:59.702Z,0
2017-06-05T03:04:59.971Z,0
2017-06-05T03:05:59.753Z,0
2017-06-05T03:06:59.735Z,0
2017-06-05T03:07:59.622Z,0
2017-06-05T03:08:59.900Z,0
2017-06-05T03:09:59.267Z,0
2017-06-05T03:10:59.580Z,0
2017-06-05T03:11:59.237Z,0
2017-06-05T03:12:59.244Z,0
2017-06-05T03:13:59.798Z,0
2017-06-05T03:14:59.494Z,0
2017-06-05T03:15:59.555Z,0
2017-06-05T03:16:58.841Z,0
2017-06-05T03:17:59.451Z,0
2017-06-05T03:18:59.123Z,0
2017-06-05T03:19:59.861Z,0
2017-06-05T03:20:59.918Z,0
2017-06-05T03:21:59.664Z,5
2017-06-05T03:22:59.665Z,5
2017-06-05T03:23:58.410Z,5
2017-06-05T03:24:59.416Z,5
2017-06-05T03:25:59.344Z,5
2017-06-05T03:26:58.679Z,5
2017-06-05T03:27:58.970Z,5
2017-06-05T03:28:58.934Z,5
2017-06-05T03:29:59.281Z,5
2017-06-05T03:30:58.896Z,5
2017-06-05T03:31:59.622Z,5
2017-06-05T03:32:59.507Z,5
2017-06-05T03:33:59.554Z,5
2017-06-05T03:34:58.832Z,5
2017-06-05T03:35:58.821Z,5
2017-06-05T03:36:58.806Z,10
2017-06-05T03:37:59.149Z,10
2017-06-05T03:38:59.078Z,10
2017-06-05T03:39:59.105Z,10
2017-06-05T03:40:59.092Z,10
2017-06-05T03:41:59.413Z,10
2017-06-05T03:42:59.070Z,10
2017-06-05T03:43:58.691Z,10
2017-06-05T03:44:58.670Z,10
2017-06-05T03:45:59.376Z,10
2017-06-05T03:46:59.371Z,10
2017-06-05T03:47:58.601Z,10
2017-06-05T03:48:59.002Z,15
2017-06-05T03:49:58.590Z,15
2017-06-05T03:50:58.656Z,15
2017-06-05T03:51:58.523Z,15
2017-06-05T03:52:57.959Z,15
2017-06-05T03:53:58.796Z,15
2017-06-05T03:54:58.481Z,15
2017-06-05T03:55:58.785Z,15
2017-06-05T03:56:58.751Z,15
2017-06-05T03:57:58.419Z,20
2017-06-05T03:58:57.862Z,20
2017-06-05T03:59:59.009Z,20
2017-06-05T04:00:58.211Z,20
2017-06-05T04:01:58.978Z,20
2017-06-05T04:02:59.151Z,25
2017-06-05T04:03:58.935Z,25
2017-06-05T04:04:58.725Z,25
2017-06-05T04:05:57.991Z,25
2017-06-05T04:06:59.031Z,25
2017-06-05T04:07:58.870Z,30
2017-06-05T04:08:58.241Z,30
2017-06-05T04:09:57.977Z,30
2017-06-05T04:10:58.512Z,30
2017-06-05T04:11:58.191Z,30
2017-06-05T04:12:58.247Z,30
2017-06-05T04:13:58.144Z,30
2017-06-05T04:14:58.171Z,30
2017-06-05T04:15:57.893Z,30
2017-06-05T04:16:58.094Z,30
2017-06-05T04:17:57.766Z,35
2017-06-05T04:18:58.121Z,35
2017-06-05T04:19:58.343Z,35
2017-06-05T04:20:58.373Z,35
2017-06-05T04:21:58.302Z,40
2017-06-05T04:22:58.082Z,40
2017-06-05T04:23:58.271Z,40
2017-06-05T04:24:58.633Z,40
2017-06-05T04:25:58.241Z,40
2017-06-05T04:26:58.221Z,40
2017-06-05T04:27:58.237Z,40
2017-06-05T04:28:58.219Z,40
2017-06-05T04:29:57.932Z,40
2017-06-05T04:30:58.464Z,40
2017-06-05T04:31:58.162Z,40
2017-06-05T04:32:58.113Z,40
2017-06-05T04:33:58.101Z,45
2017-06-05T04:34:58.148Z,45
2017-06-05T04:35:58.100Z,45
2017-06-05T04:36:57.750Z,50
2017-06-05T04:37:57.719Z,50
2017-06-05T04:38:57.684Z,50
2017-06-05T04:39:58.042Z,55
2017-06-05T04:40:57.972Z,55
2017-06-05T04:41:58.046Z,55
2017-06-05T04:42:58.402Z,55
2017-06-05T04:43:57.642Z,55
2017-06-05T04:44:57.891Z,55
2017-06-05T04:45:57.900Z,55
2017-06-05T04:46:57.871Z,55
2017-06-05T04:47:57.893Z,55
2017-06-05T04:48:57.853Z,55
2017-06-05T04:49:58.160Z,60
2017-06-05T04:50:58.142Z,60
2017-06-05T04:51:57.792Z,60
2017-06-05T04:52:57.753Z,60
2017-06-05T04:53:57.780Z,65
2017-06-05T04:54:58.017Z,65
2017-06-05T04:55:57.721Z,65
2017-06-05T04:56:57.737Z,65
2017-06-05T04:57:57.410Z,65
2017-06-05T04:58:57.672Z,65
2017-06-05T04:59:57.950Z,70
2017-06-05T05:00:57.936Z,70
2017-06-05T05:01:57.618Z,70
2017-06-05T05:02:57.639Z,70
2017-06-05T05:03:56.962Z,70
2017-06-05T05:04:57.921Z,70
2017-06-05T05:05:57.851Z,70
2017-06-05T05:06:57.813Z,70
2017-06-05T05:07:57.851Z,70
2017-06-05T05:08:57.888Z,70
2017-06-05T05:09:57.783Z,70
2017-06-05T05:10:57.142Z,70
2017-06-05T05:11:57.756Z,70
2017-06-05T05:12:57.738Z,75
2017-06-05T05:13:57.756Z,75
2017-06-05T05:14:57.387Z,75
2017-06-05T05:15:57.379Z,75
2017-06-05T05:16:57.344Z,75
2017-06-05T05:17:57.340Z,75
2017-06-05T05:18:57.683Z,75
2017-06-05T05:19:57.004Z,80
2017-06-05T05:20:57.020Z,80
2017-06-05T05:21:57.671Z,80
2017-06-05T05:22:57.563Z,80
2017-06-05T05:23:56.924Z,85
2017-06-05T05:24:57.504Z,85
2017-06-05T05:25:57.177Z,85
2017-06-05T05:26:57.193Z,85
2017-06-05T05:27:56.907Z,85
2017-06-05T05:28:57.143Z,85
2017-06-05T05:29:56.511Z,85
2017-06-05T05:30:57.454Z,85
2017-06-05T05:31:57.463Z,85
2017-06-05T05:32:57.063Z,85
2017-06-05T05:33:57.053Z,85
2017-06-05T05:34:56.747Z,85
2017-06-05T05:35:57.013Z,85
2017-06-05T05:36:57.004Z,85
2017-06-05T05:37:56.978Z,85
2017-06-05T05:38:56.365Z,85
2017-06-05T05:39:57.251Z,85
2017-06-05T05:40:57.231Z,85
2017-06-05T05:41:56.913Z,85
2017-06-05T05:42:57.212Z,85
2017-06-05T05:43:56.881Z,85
2017-06-05T05:44:56.882Z,85
2017-06-05T05:45:56.904Z,90
2017-06-05T05:46:56.838Z,90
2017-06-05T05:47:56.228Z,90
2017-06-05T05:48:55.877Z,90
2017-06-05T05:49:56.471Z,95
2017-06-05T05:50:56.761Z,95
2017-06-05T05:51:56.444Z,95
2017-06-05T05:52:56.444Z,95
2017-06-05T05:53:56.486Z,100
2017-06-05T05:54:56.690Z,100
2017-06-05T05:55:56.712Z,100
2017-06-05T05:56:56.361Z,105
2017-06-05T05:57:56.701Z,105
2017-06-05T05:58:56.629Z,110
2017-06-05T05:59:56.959Z,110
2017-06-05T06:00:56.892Z,110
2017-06-05T06:01:56.249Z,110
2017-06-05T06:02:56.874Z,110
2017-06-05T06:03:56.232Z,115
2017-06-05T06:04:56.862Z,115
2017-06-05T06:05:56.496Z,115
2017-06-05T06:06:56.193Z,115
2017-06-05T06:07:56.564Z,115
2017-06-05T06:08:56.757Z,115
2017-06-05T06:09:56.751Z,115
2017-06-05T06:10:56.414Z,115
2017-06-05T06:11:56.399Z,115
2017-06-05T06:12:56.391Z,115
2017-06-05T06:13:55.899Z,120
2017-06-05T06:14:56.365Z,120
2017-06-05T06:15:56.350Z,120
2017-06-05T06:16:56.334Z,120
2017-06-05T06:17:56.296Z,125
2017-06-05T06:18:56.310Z,125
2017-06-05T06:19:56.293Z,130
2017-06-05T06:20:56.251Z,125
2017-06-05T06:21:56.571Z,125
2017-06-05T06:22:55.921Z,125
2017-06-05T06:23:55.933Z,125
2017-06-05T06:24:56.513Z,130
2017-06-05T06:25:56.482Z,130
2017-06-05T06:26:56.143Z,130
2017-06-05T06:27:56.440Z,130
2017-06-05T06:28:56.461Z,130
2017-06-05T06:29:55.481Z,130
2017-06-05T06:30:56.391Z,130
2017-06-05T06:31:56.088Z,135
2017-06-05T06:32:55.571Z,135
2017-06-05T06:33:55.820Z,140
2017-06-05T06:34:56.023Z,140
2017-06-05T06:35:56.040Z,145
2017-06-05T06:36:55.689Z,140
2017-06-05T06:37:56.292Z,140
2017-06-05T06:38:56.270Z,145
2017-06-05T06:39:55.691Z,150
2017-06-05T06:40:56.243Z,150
2017-06-05T06:41:55.614Z,145
2017-06-05T06:42:55.695Z,150
2017-06-05T06:43:55.642Z,155
2017-06-05T06:44:55.978Z,155
2017-06-05T06:45:55.862Z,155
2017-06-05T06:46:55.249Z,155
2017-06-05T06:47:55.929Z,155
2017-06-05T06:48:55.511Z,160
2017-06-05T06:49:56.100Z,160
2017-06-05T06:50:55.762Z,160
2017-06-05T06:51:55.769Z,160
2017-06-05T06:52:55.805Z,160
2017-06-05T06:53:55.760Z,160
2017-06-05T06:54:56.013Z,165
2017-06-05T06:55:55.718Z,165
2017-06-05T06:56:55.762Z,165
2017-06-05T06:57:55.760Z,170
2017-06-05T06:58:55.976Z,175
2017-06-05T06:59:55.326Z,175
2017-06-05T07:00:55.611Z,170
2017-06-05T07:01:55.612Z,165
2017-06-05T07:02:55.611Z,165
2017-06-05T07:03:55.443Z,160
2017-06-05T07:04:55.676Z,165
2017-06-05T07:05:55.545Z,170
2017-06-05T07:06:55.232Z,180
2017-06-05T07:07:55.570Z,180
2017-06-05T07:08:55.551Z,175
2017-06-05T07:09:55.503Z,180
2017-06-05T07:10:55.159Z,180
2017-06-05T07:11:55.453Z,180
2017-06-05T07:12:55.731Z,185
2017-06-05T07:13:55.420Z,185
2017-06-05T07:14:55.091Z,185
2017-06-05T07:15:55.081Z,180
2017-06-05T07:16:55.073Z,185
2017-06-05T07:17:55.651Z,190
2017-06-05T07:18:55.402Z,195
2017-06-05T07:19:55.313Z,195
2017-06-05T07:20:54.693Z,195
2017-06-05T07:21:55.340Z,195
2017-06-05T07:22:55.290Z,195
2017-06-05T07:23:54.748Z,195
2017-06-05T07:24:55.655Z,200
2017-06-05T07:25:55.245Z,200
2017-06-05T07:26:55.262Z,205
2017-06-05T07:27:55.523Z,210
2017-06-05T07:28:55.190Z,210
2017-06-05T07:29:55.494Z,205
2017-06-05T07:30:55.462Z,200
2017-06-05T07:31:55.571Z,205
2017-06-05T07:32:55.331Z,210
2017-06-05T07:33:55.523Z,205
2017-06-05T07:34:55.422Z,205
2017-06-05T07:35:55.161Z,210
2017-06-05T07:36:55.376Z,215
2017-06-05T07:37:55.462Z,210
2017-06-05T07:38:55.339Z,205
2017-06-05T07:39:55.400Z,205
2017-06-05T07:40:55.340Z,210
2017-06-05T07:41:55.454Z,220
2017-06-05T07:42:54.980Z,215
2017-06-05T07:43:54.978Z,220
2017-06-05T07:44:55.012Z,225
2017-06-05T07:45:55.313Z,215
2017-06-05T07:46:54.919Z,215
2017-06-05T07:47:54.603Z,220
2017-06-05T07:48:54.883Z,230
2017-06-05T07:49:54.565Z,235
2017-06-05T07:50:55.180Z,230
2017-06-05T07:51:54.830Z,230
2017-06-05T07:52:54.204Z,230
2017-06-05T07:53:54.831Z,230
2017-06-05T07:54:54.806Z,225
2017-06-05T07:55:54.481Z,225
2017-06-05T07:56:54.768Z,235
2017-06-05T07:57:54.769Z,235
2017-06-05T07:58:54.764Z,235
2017-06-05T07:59:54.745Z,235
2017-06-05T08:00:54.715Z,220
2017-06-05T08:01:54.713Z,230
2017-06-05T08:02:54.377Z,235
2017-06-05T08:03:54.992Z,245
2017-06-05T08:04:54.665Z,240
2017-06-05T08:05:54.665Z,240
2017-06-05T08:06:54.657Z,235
2017-06-05T08:07:54.662Z,235
2017-06-05T08:08:54.603Z,245
2017-06-05T08:09:54.891Z,240
2017-06-05T08:10:54.587Z,235
2017-06-05T08:11:54.908Z,245
2017-06-05T08:12:54.565Z,245
2017-06-05T08:13:54.549Z,255
2017-06-05T08:14:54.854Z,260
2017-06-05T08:15:54.532Z,260
2017-06-05T08:16:53.613Z,250
2017-06-05T08:17:54.218Z,260
2017-06-05T08:18:54.480Z,265
2017-06-05T08:19:54.159Z,260
2017-06-05T08:20:54.471Z,265
2017-06-05T08:21:54.433Z,260
2017-06-05T08:22:54.409Z,270
2017-06-05T08:23:54.403Z,280
2017-06-05T08:24:54.380Z,275
2017-06-05T08:25:54.483Z,280
2017-06-05T08:26:54.052Z,285
2017-06-05T08:27:54.403Z,285
2017-06-05T08:28:54.654Z,270
2017-06-05T08:29:53.750Z,280
2017-06-05T08:30:53.682Z,285
2017-06-05T08:31:54.300Z,300
2017-06-05T08:32:54.602Z,305
2017-06-05T08:33:54.348Z,300
2017-06-05T08:34:54.543Z,290
2017-06-05T08:35:54.041Z,290
2017-06-05T08:36:54.235Z,305
2017-06-05T08:37:54.225Z,310
2017-06-05T08:38:54.239Z,315
2017-06-05T08:39:54.511Z,315
2017-06-05T08:40:54.478Z,315
2017-06-05T08:41:54.493Z,310
2017-06-05T08:42:53.846Z,310
2017-06-05T08:43:53.935Z,310
2017-06-05T08:44:53.504Z,295
2017-06-05T08:45:53.524Z,290
2017-06-05T08:46:54.470Z,290
2017-06-05T08:47:53.817Z,310
2017-06-05T08:48:54.202Z,315
2017-06-05T08:49:54.384Z,310
2017-06-05T08:50:54.103Z,325
2017-06-05T08:51:53.511Z,335
2017-06-05T08:52:54.347Z,340
2017-06-05T08:53:53.410Z,335
2017-06-05T08:54:54.002Z,325
2017-06-05T08:55:53.681Z,335
2017-06-05T08:56:53.370Z,340
2017-06-05T08:57:53.681Z,350
2017-06-05T08:58:54.017Z,345
2017-06-05T08:59:53.658Z,325
2017-06-05T09:00:53.948Z,325
2017-06-05T09:01:54.239Z,325
2017-06-05T09:02:53.921Z,315
2017-06-05T09:03:54.243Z,295
2017-06-05T09:04:53.881Z,300
2017-06-05T09:05:53.884Z,305
2017-06-05T09:06:54.161Z,310
2017-06-05T09:07:53.560Z,325
2017-06-05T09:08:53.849Z,330
2017-06-05T09:09:54.142Z,305
2017-06-05T09:10:53.527Z,300
2017-06-05T09:11:53.178Z,305
2017-06-05T09:12:54.192Z,320
2017-06-05T09:13:53.764Z,335
2017-06-05T09:14:53.448Z,365
2017-06-05T09:15:54.082Z,380
2017-06-05T09:16:54.018Z,405
2017-06-05T09:17:54.153Z,470
2017-06-05T09:18:54.021Z,525
2017-06-05T09:19:53.870Z,560
2017-06-05T09:20:53.719Z,605
2017-06-05T09:21:54.035Z,580
2017-06-05T09:22:53.694Z,750
2017-06-05T09:23:53.730Z,855
2017-06-05T09:24:53.644Z,885
2017-06-05T09:25:53.958Z,855
2017-06-05T09:26:53.661Z,875
2017-06-05T09:27:53.691Z,950
2017-06-05T09:28:53.352Z,965
2017-06-05T09:29:53.609Z,980
2017-06-05T09:30:53.287Z,1010
2017-06-05T09:31:53.339Z,1020
2017-06-05T09:32:52.983Z,820
2017-06-05T09:33:53.290Z,865
2017-06-05T09:34:53.873Z,905
2017-06-05T09:35:53.288Z,835
2017-06-05T09:36:53.865Z,940
2017-06-05T09:37:53.846Z,1005
2017-06-05T09:38:52.907Z,935
2017-06-05T09:39:53.222Z,1065
2017-06-05T09:40:53.522Z,1050
2017-06-05T09:41:53.820Z,1030
2017-06-05T09:42:53.201Z,1040
2017-06-05T09:43:53.517Z,1025
2017-06-05T09:44:53.482Z,955
2017-06-05T09:45:52.912Z,970
2017-06-05T09:46:53.772Z,935
2017-06-05T09:47:53.573Z,1035
2017-06-05T09:48:53.831Z,1060
2017-06-05T09:49:53.518Z,1040
2017-06-05T09:50:53.442Z,1020
2017-06-05T09:51:53.143Z,1040
2017-06-05T09:52:53.441Z,1025
2017-06-05T09:53:53.812Z,995
2017-06-05T09:54:53.474Z,975
2017-06-05T09:55:53.107Z,970
2017-06-05T09:56:53.720Z,1000
2017-06-05T09:57:53.143Z,975
2017-06-05T09:58:53.104Z,890
2017-06-05T09:59:53.122Z,925
2017-06-05T10:00:53.080Z,930
2017-06-05T10:01:53.400Z,925
2017-06-05T10:02:53.081Z,850
2017-06-05T10:03:53.366Z,870
2017-06-05T10:04:53.050Z,875
2017-06-05T10:05:53.338Z,825
2017-06-05T10:06:53.354Z,815
2017-06-05T10:07:53.376Z,705
2017-06-05T10:08:53.618Z,820
2017-06-05T10:09:53.333Z,800
2017-06-05T10:10:53.308Z,740
2017-06-05T10:11:53.620Z,785
2017-06-05T10:12:53.074Z,815
2017-06-05T10:13:53.621Z,810
2017-06-05T10:14:53.611Z,760
2017-06-05T10:15:53.312Z,735
2017-06-05T10:16:53.330Z,750
2017-06-05T10:17:53.572Z,730
2017-06-05T10:18:53.583Z,715
2017-06-05T10:19:52.980Z,715
2017-06-05T10:20:52.966Z,695
2017-06-05T10:21:53.612Z,655
2017-06-05T10:22:53.239Z,680
2017-06-05T10:23:53.262Z,665
2017-06-05T10:24:52.937Z,675
2017-06-05T10:25:53.527Z,630
2017-06-05T10:26:52.924Z,625
2017-06-05T10:27:53.522Z,620
2017-06-05T10:28:53.254Z,620
2017-06-05T10:29:52.936Z,615
2017-06-05T10:30:52.893Z,600
2017-06-05T10:31:52.883Z,575
2017-06-05T10:32:53.227Z,455
2017-06-05T10:33:53.151Z,335
2017-06-05T10:34:53.451Z,285
2017-06-05T10:35:53.149Z,280
2017-06-05T10:36:53.162Z,280
2017-06-05T10:37:53.512Z,275
2017-06-05T10:38:53.140Z,270
2017-06-05T10:39:53.436Z,275
2017-06-05T10:40:53.435Z,270
2017-06-05T10:41:53.437Z,270
2017-06-05T10:42:53.109Z,270
2017-06-05T10:43:52.792Z,275
2017-06-05T10:44:52.809Z,270
2017-06-05T10:45:52.765Z,270
2017-06-05T10:46:53.376Z,275
2017-06-05T10:47:52.747Z,275
2017-06-05T10:48:53.063Z,270
2017-06-05T10:49:53.110Z,275
2017-06-05T10:50:53.048Z,275
2017-06-05T10:51:53.050Z,275
2017-06-05T10:52:53.056Z,280
2017-06-05T10:53:53.340Z,285
2017-06-05T10:54:53.002Z,275
2017-06-05T10:55:53.031Z,280
2017-06-05T10:56:52.992Z,275
2017-06-05T10:57:52.979Z,275
2017-06-05T10:58:53.280Z,275
2017-06-05T10:59:53.269Z,270
2017-06-05T11:00:53.273Z,275
2017-06-05T11:01:52.932Z,275
2017-06-05T11:02:53.240Z,270
2017-06-05T11:03:53.021Z,275
2017-06-05T11:04:53.063Z,280
2017-06-05T11:05:53.038Z,275
2017-06-05T11:06:53.313Z,275
2017-06-05T11:07:52.589Z,275
2017-06-05T11:08:52.887Z,275
2017-06-05T11:09:53.272Z,275
2017-06-05T11:10:53.163Z,280
2017-06-05T11:11:52.893Z,280
2017-06-05T11:12:52.932Z,285
2017-06-05T11:13:53.180Z,280
2017-06-05T11:14:53.130Z,280
2017-06-05T11:15:52.844Z,280
2017-06-05T11:16:53.097Z,270
2017-06-05T11:17:52.793Z,280
2017-06-05T11:18:53.149Z,270
2017-06-05T11:19:53.132Z,155
2017-06-05T11:20:53.071Z,160
2017-06-05T11:21:53.062Z,270
2017-06-05T11:22:52.856Z,280
2017-06-05T11:23:53.057Z,290
2017-06-05T11:24:53.062Z,290
2017-06-05T11:25:53.022Z,295
2017-06-05T11:26:53.091Z,300
2017-06-05T11:27:53.100Z,305
2017-06-05T11:28:52.511Z,305
2017-06-05T11:29:52.401Z,315
2017-06-05T11:30:53.031Z,300
2017-06-05T11:31:52.999Z,320
2017-06-05T11:32:52.992Z,310
2017-06-05T11:33:52.949Z,305
2017-06-05T11:34:52.332Z,295
2017-06-05T11:35:52.946Z,300
2017-06-05T11:36:52.935Z,295
2017-06-05T11:37:52.922Z,190
2017-06-05T11:38:52.612Z,295
2017-06-05T11:39:52.623Z,295
2017-06-05T11:40:52.909Z,290
2017-06-05T11:41:52.915Z,290
2017-06-05T11:42:52.905Z,295
2017-06-05T11:43:52.876Z,290
2017-06-05T11:44:52.884Z,285
2017-06-05T11:45:52.550Z,295
2017-06-05T11:46:52.876Z,300
2017-06-05T11:47:53.220Z,300
2017-06-05T11:48:55.912Z,300
2017-06-05T11:49:52.500Z,290
2017-06-05T11:50:52.192Z,290
2017-06-05T11:51:52.884Z,285
2017-06-05T11:52:52.807Z,285
2017-06-05T11:53:52.470Z,250
2017-06-05T11:54:52.171Z,260
2017-06-05T11:55:52.857Z,155
2017-06-05T11:56:52.852Z,155
2017-06-05T11:57:52.778Z,155
2017-06-05T11:58:52.534Z,165
2017-06-05T11:59:52.101Z,200
2017-06-05T12:00:51.842Z,290
2017-06-05T12:01:52.742Z,285
2017-06-05T12:02:52.694Z,275
2017-06-05T12:03:52.731Z,280
2017-06-05T12:04:52.391Z,280
2017-06-05T12:05:52.725Z,275
2017-06-05T12:06:52.690Z,275
2017-06-05T12:07:52.660Z,280
2017-06-05T12:08:52.339Z,200
2017-06-05T12:09:52.354Z,275
2017-06-05T12:10:52.630Z,275
2017-06-05T12:11:52.610Z,270
2017-06-05T12:12:52.607Z,245
2017-06-05T12:13:52.313Z,145
2017-06-05T12:14:52.580Z,170
2017-06-05T12:15:52.589Z,155
2017-06-05T12:16:52.593Z,155
2017-06-05T12:17:52.093Z,160
2017-06-05T12:18:52.281Z,180
2017-06-05T12:19:52.230Z,295
2017-06-05T12:20:51.726Z,295
2017-06-05T12:21:52.525Z,300
2017-06-05T12:22:52.530Z,185
2017-06-05T12:23:52.494Z,275
2017-06-05T12:24:51.940Z,295
2017-06-05T12:25:52.190Z,285
2017-06-05T12:26:52.503Z,215
2017-06-05T12:27:51.861Z,175
2017-06-05T12:28:52.183Z,160
2017-06-05T12:29:52.460Z,155
2017-06-05T12:30:52.170Z,145
2017-06-05T12:31:52.161Z,145
2017-06-05T12:32:52.391Z,145
2017-06-05T12:33:52.442Z,145
2017-06-05T12:34:52.081Z,170
2017-06-05T12:35:52.389Z,235
2017-06-05T12:36:52.111Z,265
2017-06-05T12:37:52.083Z,250
2017-06-05T12:38:52.389Z,265
2017-06-05T12:39:52.322Z,270
2017-06-05T12:40:52.109Z,260
2017-06-05T12:41:52.320Z,180
2017-06-05T12:42:52.020Z,180
2017-06-05T12:43:51.684Z,260
2017-06-05T12:44:52.341Z,170
2017-06-05T12:45:52.365Z,265
2017-06-05T12:46:51.674Z,160
2017-06-05T12:47:51.971Z,155
2017-06-05T12:48:52.330Z,155
2017-06-05T12:49:51.934Z,160
2017-06-05T12:50:52.259Z,160
2017-06-05T12:51:51.942Z,165
2017-06-05T12:52:51.921Z,165
2017-06-05T12:53:51.598Z,165
2017-06-05T12:54:51.930Z,165
2017-06-05T12:55:51.876Z,160
2017-06-05T12:56:52.191Z,160
2017-06-05T12:57:52.189Z,155
2017-06-05T12:58:51.935Z,150
2017-06-05T12:59:51.853Z,150
2017-06-05T13:00:52.150Z,175
2017-06-05T13:01:52.171Z,150
2017-06-05T13:02:51.819Z,150
2017-06-05T13:03:51.862Z,150
2017-06-05T13:04:51.490Z,150
2017-06-05T13:05:51.784Z,150
2017-06-05T13:06:52.109Z,150
2017-06-05T13:07:51.772Z,155
2017-06-05T13:08:51.866Z,160
2017-06-05T13:09:52.077Z,165
2017-06-05T13:10:51.704Z,170
2017-06-05T13:11:51.419Z,170
2017-06-05T13:12:51.698Z,175
2017-06-05T13:13:52.011Z,185
2017-06-05T13:14:52.012Z,215
2017-06-05T13:15:51.343Z,195
2017-06-05T13:16:51.690Z,190
2017-06-05T13:17:51.753Z,190
2017-06-05T13:18:51.334Z,195
2017-06-05T13:19:51.923Z,190
2017-06-05T13:20:51.312Z,190
2017-06-05T13:21:51.601Z,245
2017-06-05T13:22:51.601Z,275
2017-06-05T13:23:51.650Z,230
2017-06-05T13:24:51.892Z,230
2017-06-05T13:25:51.592Z,250
2017-06-05T13:26:51.280Z,270
2017-06-05T13:27:51.252Z,210
2017-06-05T13:28:51.858Z,185
2017-06-05T13:29:51.643Z,175
2017-06-05T13:30:51.834Z,180
2017-06-05T13:31:51.958Z,175
2017-06-05T13:32:51.861Z,175
2017-06-05T13:33:51.554Z,255
2017-06-05T13:34:51.958Z,180
2017-06-05T13:35:51.177Z,190
2017-06-05T13:36:51.796Z,190
2017-06-05T13:37:51.781Z,270
2017-06-05T13:38:51.583Z,190
2017-06-05T13:39:51.768Z,235
2017-06-05T13:40:51.752Z,245
2017-06-05T13:41:51.766Z,240
2017-06-05T13:42:51.867Z,225
2017-06-05T13:43:51.099Z,165
2017-06-05T13:44:51.382Z,215
2017-06-05T13:45:51.706Z,165
2017-06-05T13:46:51.777Z,150
2017-06-05T13:47:51.378Z,150
2017-06-05T13:48:51.706Z,175
2017-06-05T13:49:51.692Z,175
2017-06-05T13:50:51.711Z,210
2017-06-05T13:51:51.320Z,190
2017-06-05T13:52:51.311Z,125
2017-06-05T13:53:51.659Z,120
2017-06-05T13:54:50.972Z,115
2017-06-05T13:55:51.647Z,120
2017-06-05T13:56:50.964Z,125
2017-06-05T13:57:51.312Z,125
2017-06-05T13:58:51.256Z,130
2017-06-05T13:59:50.675Z,140
2017-06-05T14:00:50.623Z,145
2017-06-05T14:01:51.541Z,145
2017-06-05T14:02:51.547Z,150
2017-06-05T14:03:51.219Z,155
2017-06-05T14:04:51.531Z,225